Terminal Aerodrome Forecast
Issued by NWS Cleveland, OH

Home | Current Version | Previous Version | Text Only | Print | Product List | Glossary On
Versions: 1 2 3 4 5 6 7 8 9 10 11 12 13 14 15 16 17 18 19 20 21
157
FTUS41 KCLE 171127
TAFYNG
TAF
KYNG 171127Z 1712/1812 10004KT 4SM BR SCT005 BKN250
      TEMPO 1712/1714 2SM BR BKN005
     FM171600 15005KT P6SM SCT022 BKN200
     FM172000 19007KT P6SM VCSH BKN030 OVC120
     FM180300 21006KT 5SM BR VCSH OVC015
     FM180900 21007KT 4SM BR OVC008=

USA.gov is the U.S. government's official web portal to all federal, state and local government web resources and services.